TAP231 LPPT-KIAD
Flight info
| Callsign | TAP231 |
|---|---|
| Flight time | N/A |
| Altitude | 38000 |
| Route | ELNUB DCT ERPES/M078F380 DCT 41N020W 43N025W 44N030W 46N040W 47N050W DCT PORTI/N0444F380 N194A ALLEX DCT KAYCC DCT KYLOH DCT BAF |
| Aircraft | A21N/M-SDE2E3FGHIRWXY/LB1 |
Departure
| Time | 2026-04-27 09:37 |
|---|---|
| Airport | Lisbon Humberto Delgado Airport (LPPT) |
Arrival
| Time | N/A |
|---|---|
| Airport | Washington Dulles International Airport (KIAD) |
| Time | Latitude | Longitude | Altitude | Speed | Heading |
|---|---|---|---|---|---|
| 2026-04-27 09:09 | 38.76938 | -9.13065 | 340 ft | 0 kts | 79° |
| 2026-04-27 09:25 | 38.76938 | -9.13067 | 340 ft | 0 kts | 80° |
| 2026-04-27 09:25 | 38.76935 | -9.13084 | 339 ft | 2 kts | 77° |
| 2026-04-27 09:25 | 38.76932 | -9.13103 | 337 ft | 2 kts | 80° |
| 2026-04-27 09:25 | 38.76929 | -9.13122 | 336 ft | 2 kts | 86° |
| 2026-04-27 09:26 | 38.76933 | -9.13141 | 335 ft | 2 kts | 122° |
| 2026-04-27 09:26 | 38.76944 | -9.13154 | 334 ft | 2 kts | 152° |
| 2026-04-27 09:26 | 38.76951 | -9.13158 | 334 ft | 1 kts | 169° |
| 2026-04-27 09:26 | 38.76957 | -9.13160 | 334 ft | 0 kts | 168° |
| 2026-04-27 09:29 | 38.76930 | -9.13149 | 335 ft | 5 kts | 163° |
| 2026-04-27 09:29 | 38.76891 | -9.13136 | 335 ft | 6 kts | 168° |
| 2026-04-27 09:30 | 38.76842 | -9.13125 | 335 ft | 8 kts | 174° |
| 2026-04-27 09:30 | 38.76783 | -9.13166 | 333 ft | 12 kts | 246° |
| 2026-04-27 09:30 | 38.76760 | -9.13287 | 332 ft | 14 kts | 261° |
| 2026-04-27 09:30 | 38.76724 | -9.13394 | 336 ft | 11 kts | 225° |
| 2026-04-27 09:31 | 38.76672 | -9.13452 | 340 ft | 8 kts | 233° |
| 2026-04-27 09:31 | 38.76652 | -9.13519 | 343 ft | 13 kts | 256° |
| 2026-04-27 09:31 | 38.76627 | -9.13673 | 344 ft | 20 kts | 258° |
| 2026-04-27 09:31 | 38.76594 | -9.13855 | 341 ft | 21 kts | 257° |
| 2026-04-27 09:32 | 38.76546 | -9.14024 | 339 ft | 20 kts | 229° |
| 2026-04-27 09:32 | 38.76497 | -9.14175 | 337 ft | 18 kts | 282° |
| 2026-04-27 09:32 | 38.76514 | -9.14238 | 336 ft | 0 kts | 291° |
| 2026-04-27 09:35 | 38.76514 | -9.14239 | 336 ft | 0 kts | 291° |
| 2026-04-27 09:35 | 38.76526 | -9.14275 | 336 ft | 8 kts | 292° |
| 2026-04-27 09:35 | 38.76552 | -9.14353 | 335 ft | 10 kts | 296° |
| 2026-04-27 09:35 | 38.76609 | -9.14404 | 335 ft | 11 kts | 7° |
| 2026-04-27 09:36 | 38.76645 | -9.14389 | 336 ft | 0 kts | 19° |
| 2026-04-27 09:36 | 38.76663 | -9.14381 | 335 ft | 20 kts | 21° |
| 2026-04-27 09:36 | 38.77046 | -9.14173 | 342 ft | 94 kts | 22° |
| 2026-04-27 09:36 | 38.77843 | -9.13747 | 360 ft | 151 kts | 24° |
| 2026-04-27 09:37 | 38.78934 | -9.13139 | 521 ft | 185 kts | 24° |
| 2026-04-27 09:37 | 38.80230 | -9.12464 | 771 ft | 218 kts | 24° |
| 2026-04-27 09:37 | 38.81554 | -9.11550 | 1674 ft | 218 kts | 34° |
| 2026-04-27 09:37 | 38.82789 | -9.10539 | 2724 ft | 213 kts | 34° |
| 2026-04-27 09:38 | 38.84099 | -9.09511 | 3339 ft | 230 kts | 32° |
| 2026-04-27 09:38 | 38.85538 | -9.08457 | 3917 ft | 248 kts | 31° |
| 2026-04-27 09:38 | 38.87078 | -9.07381 | 4616 ft | 260 kts | 30° |
| 2026-04-27 09:38 | 38.88737 | -9.06442 | 5494 ft | 267 kts | 13° |
| 2026-04-27 09:39 | 38.90584 | -9.06620 | 6354 ft | 277 kts | 340° |
| 2026-04-27 09:39 | 38.92122 | -9.08097 | 7217 ft | 286 kts | 309° |
| 2026-04-27 09:39 | 38.92974 | -9.10419 | 8066 ft | 292 kts | 285° |
| 2026-04-27 09:39 | 38.93425 | -9.12927 | 8895 ft | 296 kts | 284° |
| 2026-04-27 09:40 | 38.93907 | -9.15525 | 9715 ft | 301 kts | 285° |
| 2026-04-27 09:40 | 38.94414 | -9.18132 | 10495 ft | 306 kts | 285° |
| 2026-04-27 09:40 | 38.94954 | -9.20820 | 10973 ft | 322 kts | 285° |
| 2026-04-27 09:40 | 38.95538 | -9.23675 | 11366 ft | 340 kts | 285° |
| 2026-04-27 09:41 | 38.96157 | -9.26672 | 11828 ft | 354 kts | 285° |
| 2026-04-27 09:41 | 38.96786 | -9.29707 | 12538 ft | 359 kts | 285° |
| 2026-04-27 09:41 | 38.97432 | -9.32824 | 13302 ft | 362 kts | 285° |
| 2026-04-27 09:41 | 38.98083 | -9.35967 | 14034 ft | 366 kts | 285° |
| 2026-04-27 09:42 | 38.98732 | -9.39097 | 14764 ft | 369 kts | 285° |
| 2026-04-27 09:42 | 38.99392 | -9.42282 | 15486 ft | 372 kts | 285° |
| 2026-04-27 09:42 | 39.00061 | -9.45514 | 16187 ft | 375 kts | 285° |
| 2026-04-27 09:42 | 39.00732 | -9.48758 | 16889 ft | 378 kts | 285° |
| 2026-04-27 09:43 | 39.01402 | -9.52004 | 17560 ft | 381 kts | 285° |
| 2026-04-27 09:43 | 39.02075 | -9.55271 | 18214 ft | 383 kts | 285° |
| 2026-04-27 09:43 | 39.02758 | -9.58594 | 18883 ft | 386 kts | 284° |
| 2026-04-27 09:43 | 39.03444 | -9.61934 | 19555 ft | 387 kts | 284° |
| 2026-04-27 09:44 | 39.04124 | -9.65254 | 20193 ft | 389 kts | 284° |
| 2026-04-27 09:44 | 39.04809 | -9.68600 | 20814 ft | 391 kts | 284° |
| 2026-04-27 09:44 | 39.05497 | -9.71964 | 21402 ft | 394 kts | 284° |
| 2026-04-27 09:44 | 39.06195 | -9.75386 | 21991 ft | 396 kts | 284° |
| 2026-04-27 09:45 | 39.06897 | -9.78833 | 22558 ft | 399 kts | 283° |
| 2026-04-27 09:45 | 39.07592 | -9.82248 | 23102 ft | 401 kts | 283° |
| 2026-04-27 09:45 | 39.08299 | -9.85730 | 23645 ft | 404 kts | 283° |
| 2026-04-27 09:45 | 39.09005 | -9.89214 | 24173 ft | 406 kts | 283° |
| 2026-04-27 09:46 | 39.09715 | -9.92722 | 24665 ft | 409 kts | 283° |
| 2026-04-27 09:46 | 39.10435 | -9.96285 | 25160 ft | 412 kts | 283° |
| 2026-04-27 09:46 | 39.11155 | -9.99855 | 25625 ft | 414 kts | 283° |
| 2026-04-27 09:46 | 39.11872 | -10.03413 | 26080 ft | 417 kts | 283° |
| 2026-04-27 09:47 | 39.12599 | -10.07032 | 26521 ft | 419 kts | 283° |
| 2026-04-27 09:47 | 39.13336 | -10.10704 | 26946 ft | 422 kts | 283° |
| 2026-04-27 09:47 | 39.14060 | -10.14320 | 27348 ft | 424 kts | 283° |
| 2026-04-27 09:47 | 39.14795 | -10.17999 | 27750 ft | 427 kts | 283° |
| 2026-04-27 09:48 | 39.15532 | -10.21689 | 28146 ft | 429 kts | 283° |
| 2026-04-27 09:48 | 39.16275 | -10.25419 | 28526 ft | 431 kts | 283° |
| 2026-04-27 09:48 | 39.17025 | -10.29188 | 28926 ft | 433 kts | 283° |
| 2026-04-27 09:48 | 39.17764 | -10.32911 | 29433 ft | 431 kts | 283° |
| 2026-04-27 09:49 | 39.18502 | -10.36633 | 29965 ft | 429 kts | 283° |
| 2026-04-27 09:49 | 39.19225 | -10.40283 | 30480 ft | 427 kts | 282° |
| 2026-04-27 09:49 | 39.19957 | -10.43994 | 30978 ft | 426 kts | 282° |
| 2026-04-27 09:49 | 39.20683 | -10.47673 | 31451 ft | 425 kts | 282° |
| 2026-04-27 09:50 | 39.21410 | -10.51370 | 31906 ft | 424 kts | 282° |
| 2026-04-27 09:50 | 39.22129 | -10.55030 | 32339 ft | 423 kts | 282° |
| 2026-04-27 09:50 | 39.22840 | -10.58658 | 32755 ft | 422 kts | 282° |
| 2026-04-27 09:50 | 39.23564 | -10.62358 | 33160 ft | 422 kts | 282° |
| 2026-04-27 09:51 | 39.24268 | -10.65962 | 33541 ft | 421 kts | 282° |
| 2026-04-27 09:51 | 39.24982 | -10.69628 | 33929 ft | 420 kts | 282° |
| 2026-04-27 09:51 | 39.25689 | -10.73262 | 34285 ft | 419 kts | 282° |
| 2026-04-27 09:51 | 39.26392 | -10.76881 | 34610 ft | 418 kts | 281° |
| 2026-04-27 09:52 | 39.27101 | -10.80538 | 34919 ft | 417 kts | 281° |
| 2026-04-27 09:52 | 39.27796 | -10.84135 | 35200 ft | 416 kts | 282° |
| 2026-04-27 09:52 | 39.28487 | -10.87716 | 35464 ft | 415 kts | 282° |
| 2026-04-27 09:52 | 39.29186 | -10.91342 | 35714 ft | 415 kts | 282° |
| 2026-04-27 09:53 | 39.29881 | -10.94951 | 35946 ft | 415 kts | 282° |
| 2026-04-27 09:53 | 39.30574 | -10.98561 | 36174 ft | 414 kts | 282° |
| 2026-04-27 09:53 | 39.31265 | -11.02163 | 36401 ft | 414 kts | 282° |
| 2026-04-27 09:53 | 39.31951 | -11.05743 | 36646 ft | 414 kts | 282° |
| 2026-04-27 09:54 | 39.32639 | -11.09345 | 36871 ft | 415 kts | 282° |
| 2026-04-27 09:54 | 39.33330 | -11.12964 | 37077 ft | 416 kts | 282° |
| 2026-04-27 09:54 | 39.34011 | -11.16543 | 37266 ft | 417 kts | 282° |
| 2026-04-27 09:54 | 39.34705 | -11.20191 | 37460 ft | 418 kts | 282° |
| 2026-04-27 09:55 | 39.35396 | -11.23836 | 37633 ft | 419 kts | 282° |
| 2026-04-27 09:55 | 39.36086 | -11.27479 | 37790 ft | 420 kts | 282° |
| 2026-04-27 09:55 | 39.37469 | -11.34796 | 38060 ft | 422 kts | 282° |
| 2026-04-27 09:56 | 39.38845 | -11.42107 | 38066 ft | 422 kts | 282° |
| 2026-04-27 09:56 | 39.40226 | -11.49468 | 38072 ft | 422 kts | 282° |
| 2026-04-27 09:57 | 39.41604 | -11.56843 | 38074 ft | 422 kts | 282° |
| 2026-04-27 09:57 | 39.42971 | -11.64195 | 38077 ft | 422 kts | 282° |
| 2026-04-27 09:58 | 39.44331 | -11.71532 | 38079 ft | 422 kts | 282° |
| 2026-04-27 09:58 | 39.45700 | -11.78942 | 38082 ft | 422 kts | 282° |
| 2026-04-27 09:59 | 39.47054 | -11.86305 | 38083 ft | 422 kts | 282° |
| 2026-04-27 09:59 | 39.48405 | -11.93673 | 38085 ft | 423 kts | 282° |
| 2026-04-27 10:00 | 39.49748 | -12.01030 | 38087 ft | 423 kts | 282° |
| 2026-04-27 10:00 | 39.51087 | -12.08397 | 38087 ft | 423 kts | 282° |
| 2026-04-27 10:01 | 39.52428 | -12.15805 | 38091 ft | 423 kts | 282° |
| 2026-04-27 10:01 | 39.53762 | -12.23194 | 38092 ft | 423 kts | 282° |
| 2026-04-27 10:02 | 39.55090 | -12.30581 | 38092 ft | 423 kts | 282° |
| 2026-04-27 10:02 | 39.56417 | -12.37993 | 38099 ft | 423 kts | 282° |
| 2026-04-27 10:03 | 39.57734 | -12.45375 | 38094 ft | 423 kts | 282° |
| 2026-04-27 10:03 | 39.59054 | -12.52803 | 38105 ft | 423 kts | 282° |
| 2026-04-27 10:04 | 39.60366 | -12.60218 | 38109 ft | 423 kts | 282° |
| 2026-04-27 10:04 | 39.61667 | -12.67603 | 38111 ft | 422 kts | 281° |
| 2026-04-27 10:05 | 39.62966 | -12.75007 | 38106 ft | 423 kts | 281° |
| 2026-04-27 10:05 | 39.64260 | -12.82405 | 38112 ft | 423 kts | 281° |
| 2026-04-27 10:06 | 39.65552 | -12.89828 | 38118 ft | 423 kts | 281° |
| 2026-04-27 10:06 | 39.66840 | -12.97248 | 38113 ft | 423 kts | 281° |
| 2026-04-27 10:07 | 39.68120 | -13.04661 | 38124 ft | 423 kts | 281° |
| 2026-04-27 10:07 | 39.69397 | -13.12082 | 38126 ft | 423 kts | 281° |
| 2026-04-27 10:08 | 39.70673 | -13.19530 | 38127 ft | 422 kts | 281° |
| 2026-04-27 10:08 | 39.71938 | -13.26951 | 38129 ft | 422 kts | 282° |
| 2026-04-27 10:09 | 39.73199 | -13.34370 | 38131 ft | 423 kts | 282° |
| 2026-04-27 10:09 | 39.74454 | -13.41782 | 38135 ft | 423 kts | 282° |
| 2026-04-27 10:10 | 39.75708 | -13.49222 | 38136 ft | 423 kts | 281° |
| 2026-04-27 10:10 | 39.76960 | -13.56680 | 38137 ft | 424 kts | 282° |
| 2026-04-27 10:11 | 39.78212 | -13.64174 | 38142 ft | 424 kts | 282° |
| 2026-04-27 10:11 | 39.79447 | -13.71593 | 38149 ft | 424 kts | 281° |
| 2026-04-27 10:12 | 39.80684 | -13.79062 | 38153 ft | 424 kts | 281° |
| 2026-04-27 10:12 | 39.81914 | -13.86507 | 38155 ft | 424 kts | 281° |
| 2026-04-27 10:13 | 39.83145 | -13.93996 | 38156 ft | 424 kts | 281° |
| 2026-04-27 10:13 | 39.84366 | -14.01462 | 38153 ft | 424 kts | 281° |
| 2026-04-27 10:14 | 39.85590 | -14.08977 | 38147 ft | 424 kts | 281° |
| 2026-04-27 10:14 | 39.86800 | -14.16440 | 38154 ft | 424 kts | 281° |
| 2026-04-27 10:15 | 39.88007 | -14.23915 | 38159 ft | 423 kts | 281° |
| 2026-04-27 10:15 | 39.89210 | -14.31388 | 38160 ft | 423 kts | 281° |
| 2026-04-27 10:16 | 39.90411 | -14.38880 | 38169 ft | 423 kts | 281° |
| 2026-04-27 10:16 | 39.91598 | -14.46334 | 38158 ft | 423 kts | 281° |
| 2026-04-27 10:17 | 39.92781 | -14.53790 | 38158 ft | 423 kts | 281° |
| 2026-04-27 10:17 | 39.93965 | -14.61283 | 38173 ft | 423 kts | 281° |
| 2026-04-27 10:18 | 39.95140 | -14.68753 | 38182 ft | 423 kts | 281° |
| 2026-04-27 10:18 | 39.96315 | -14.76257 | 38192 ft | 424 kts | 281° |
| 2026-04-27 10:19 | 39.97492 | -14.83800 | 38189 ft | 424 kts | 281° |
| 2026-04-27 10:19 | 39.98653 | -14.91285 | 38194 ft | 423 kts | 281° |
| 2026-04-27 10:20 | 39.99829 | -14.98779 | 38192 ft | 423 kts | 282° |
| 2026-04-27 10:20 | 40.01362 | -15.06114 | 38210 ft | 423 kts | 285° |
| 2026-04-27 10:21 | 40.03015 | -15.13479 | 38198 ft | 423 kts | 286° |
| 2026-04-27 10:21 | 40.04657 | -15.20825 | 38197 ft | 423 kts | 286° |
| 2026-04-27 10:22 | 40.06292 | -15.28166 | 38194 ft | 422 kts | 286° |
| 2026-04-27 10:22 | 40.07916 | -15.35497 | 38191 ft | 422 kts | 286° |
| 2026-04-27 10:23 | 40.09540 | -15.42849 | 38189 ft | 421 kts | 286° |
| 2026-04-27 10:23 | 40.11149 | -15.50158 | 38189 ft | 422 kts | 286° |
| 2026-04-27 10:24 | 40.12757 | -15.57486 | 38197 ft | 422 kts | 286° |
| 2026-04-27 10:24 | 40.14370 | -15.64868 | 38196 ft | 422 kts | 287° |
| 2026-04-27 10:25 | 40.15969 | -15.72208 | 38195 ft | 423 kts | 286° |
| 2026-04-27 10:25 | 40.17567 | -15.79565 | 38194 ft | 422 kts | 286° |
| 2026-04-27 10:26 | 40.19159 | -15.86925 | 38197 ft | 422 kts | 286° |
| 2026-04-27 10:26 | 40.20754 | -15.94315 | 38209 ft | 422 kts | 286° |
| 2026-04-27 10:27 | 40.22337 | -16.01677 | 38205 ft | 422 kts | 286° |
| 2026-04-27 10:27 | 40.23913 | -16.09038 | 38206 ft | 423 kts | 286° |
| 2026-04-27 10:28 | 40.25487 | -16.16415 | 38206 ft | 423 kts | 286° |
| 2026-04-27 10:28 | 40.27070 | -16.23852 | 38214 ft | 424 kts | 287° |
| 2026-04-27 10:29 | 40.28641 | -16.31265 | 38214 ft | 423 kts | 287° |
| 2026-04-27 10:29 | 40.30203 | -16.38658 | 38219 ft | 423 kts | 287° |
| 2026-04-27 10:30 | 40.31765 | -16.46075 | 38219 ft | 423 kts | 287° |
| 2026-04-27 10:30 | 40.33310 | -16.53439 | 38221 ft | 424 kts | 287° |
| 2026-04-27 10:31 | 40.34868 | -16.60896 | 38223 ft | 424 kts | 287° |
| 2026-04-27 10:31 | 40.36416 | -16.68331 | 38226 ft | 425 kts | 286° |
| 2026-04-27 10:32 | 40.37962 | -16.75775 | 38225 ft | 425 kts | 286° |
| 2026-04-27 10:32 | 40.39510 | -16.83252 | 38228 ft | 426 kts | 286° |
| 2026-04-27 10:33 | 40.41049 | -16.90714 | 38224 ft | 426 kts | 286° |
| 2026-04-27 10:33 | 40.42590 | -16.98222 | 38225 ft | 426 kts | 287° |
| 2026-04-27 10:34 | 40.44116 | -17.05689 | 38227 ft | 425 kts | 287° |
| 2026-04-27 10:34 | 40.45644 | -17.13174 | 38225 ft | 425 kts | 287° |
| 2026-04-27 10:35 | 40.47158 | -17.20629 | 38227 ft | 426 kts | 287° |
| 2026-04-27 10:35 | 40.48679 | -17.28139 | 38226 ft | 426 kts | 287° |
| 2026-04-27 10:36 | 40.50192 | -17.35642 | 38228 ft | 426 kts | 287° |
| 2026-04-27 10:36 | 40.51693 | -17.43112 | 38229 ft | 425 kts | 287° |
| 2026-04-27 10:37 | 40.53196 | -17.50619 | 38226 ft | 425 kts | 287° |
| 2026-04-27 10:37 | 40.54689 | -17.58104 | 38227 ft | 425 kts | 287° |
| 2026-04-27 10:38 | 40.56176 | -17.65589 | 38230 ft | 425 kts | 286° |
| 2026-04-27 10:38 | 40.57658 | -17.73071 | 38231 ft | 425 kts | 286° |
| 2026-04-27 10:39 | 40.59142 | -17.80592 | 38225 ft | 425 kts | 286° |
| 2026-04-27 10:39 | 40.60619 | -17.88113 | 38230 ft | 425 kts | 286° |
| 2026-04-27 10:40 | 40.62088 | -17.95611 | 38227 ft | 426 kts | 287° |
| 2026-04-27 10:40 | 40.63555 | -18.03137 | 38231 ft | 425 kts | 287° |
| 2026-04-27 10:41 | 40.65011 | -18.10626 | 38234 ft | 426 kts | 287° |
| 2026-04-27 10:41 | 40.66477 | -18.18195 | 38241 ft | 426 kts | 287° |
| 2026-04-27 10:42 | 40.67932 | -18.25736 | 38239 ft | 426 kts | 287° |
| 2026-04-27 10:42 | 40.69376 | -18.33259 | 38241 ft | 425 kts | 287° |
| 2026-04-27 10:43 | 40.70818 | -18.40791 | 38240 ft | 425 kts | 287° |
| 2026-04-27 10:43 | 40.72249 | -18.48302 | 38241 ft | 426 kts | 287° |
| 2026-04-27 10:44 | 40.73685 | -18.55855 | 38241 ft | 427 kts | 287° |
| 2026-04-27 10:44 | 40.75119 | -18.63436 | 38243 ft | 427 kts | 287° |
| 2026-04-27 10:45 | 40.76543 | -18.70997 | 38241 ft | 428 kts | 286° |
| 2026-04-27 10:45 | 40.77977 | -18.78628 | 38243 ft | 428 kts | 286° |
| 2026-04-27 10:46 | 40.79390 | -18.86190 | 38246 ft | 428 kts | 286° |
| 2026-04-27 10:46 | 40.80812 | -18.93826 | 38240 ft | 428 kts | 286° |
| 2026-04-27 10:47 | 40.82218 | -19.01400 | 38243 ft | 429 kts | 286° |
| 2026-04-27 10:47 | 40.83625 | -19.09022 | 38247 ft | 429 kts | 286° |
| 2026-04-27 10:48 | 40.85035 | -19.16688 | 38250 ft | 428 kts | 286° |
| 2026-04-27 10:48 | 40.86428 | -19.24281 | 38249 ft | 428 kts | 287° |
| 2026-04-27 10:49 | 40.87814 | -19.31874 | 38244 ft | 427 kts | 287° |
| 2026-04-27 10:49 | 40.89206 | -19.39529 | 38246 ft | 427 kts | 287° |
| 2026-04-27 10:50 | 40.90579 | -19.47109 | 38243 ft | 428 kts | 287° |
| 2026-04-27 10:50 | 40.91958 | -19.54754 | 38242 ft | 428 kts | 287° |
| 2026-04-27 10:51 | 40.93305 | -19.62257 | 38244 ft | 428 kts | 287° |
| 2026-04-27 10:51 | 40.94673 | -19.69900 | 38241 ft | 428 kts | 286° |
| 2026-04-27 10:52 | 40.96034 | -19.77547 | 38245 ft | 428 kts | 286° |
| 2026-04-27 10:52 | 40.97391 | -19.85196 | 38248 ft | 428 kts | 286° |
| 2026-04-27 10:53 | 40.99638 | -19.96541 | 38243 ft | 425 kts | 292° |
| 2026-04-27 10:54 | 41.01826 | -20.03762 | 38246 ft | 422 kts | 298° |
| 2026-04-27 10:54 | 41.04561 | -20.10558 | 38240 ft | 420 kts | 303° |
| 2026-04-27 10:55 | 41.07465 | -20.17252 | 38244 ft | 419 kts | 303° |
| 2026-04-27 10:55 | 41.10355 | -20.23929 | 38239 ft | 418 kts | 303° |
| 2026-04-27 10:56 | 41.13223 | -20.30577 | 38234 ft | 418 kts | 303° |
| 2026-04-27 10:56 | 41.16100 | -20.37266 | 38281 ft | 416 kts | 303° |
| 2026-04-27 10:57 | 41.18946 | -20.43897 | 38254 ft | 416 kts | 303° |
| 2026-04-27 10:57 | 41.21809 | -20.50583 | 38251 ft | 416 kts | 303° |
| 2026-04-27 10:58 | 41.24649 | -20.57228 | 38256 ft | 416 kts | 302° |